createdAt,value
2017-10-28T00:01:14.423Z,8.80
2017-10-28T00:03:42.660Z,8.70
2017-10-28T00:06:10.185Z,8.70
2017-10-28T00:08:37.715Z,8.80
2017-10-28T00:11:05.957Z,8.80
2017-10-28T00:13:33.447Z,8.80
2017-10-28T00:16:01.687Z,8.80
2017-10-28T00:18:29.175Z,8.70
2017-10-28T00:20:57.433Z,8.80
2017-10-28T00:23:24.913Z,8.80
2017-10-28T00:25:53.297Z,8.80
2017-10-28T00:28:21.548Z,8.80
2017-10-28T00:30:54.792Z,8.80
2017-10-28T00:33:27.899Z,8.70
2017-10-28T00:49:17.928Z,8.70
2017-10-28T00:51:46.209Z,8.60
2017-10-28T00:54:14.443Z,8.60
2017-10-28T00:56:42.850Z,8.60
2017-10-28T00:59:10.337Z,8.60
2017-10-28T01:01:37.875Z,8.60
2017-10-28T01:04:06.188Z,8.60
2017-10-28T01:06:33.716Z,8.60
2017-10-28T01:09:01.968Z,8.50
2017-10-28T01:11:29.463Z,8.50
2017-10-28T01:13:57.771Z,8.40
2017-10-28T01:16:25.247Z,8.40
2017-10-28T01:18:52.851Z,8.30
2017-10-28T01:21:21.087Z,8.20
2017-10-28T01:23:48.566Z,8.20
2017-10-28T01:26:16.139Z,8.10
2017-10-28T01:28:44.383Z,8.10
2017-10-28T01:31:11.876Z,8.10
2017-10-28T01:33:40.118Z,8.20
2017-10-28T01:36:07.603Z,8.20
2017-10-28T01:38:35.078Z,8.20
2017-10-28T01:41:03.331Z,8.30
2017-10-28T01:43:30.811Z,8.30
2017-10-28T01:45:59.056Z,8.30
2017-10-28T01:48:26.544Z,8.30
2017-10-28T01:50:54.818Z,8.40
2017-10-28T01:53:23.068Z,8.40
2017-10-28T01:55:50.562Z,8.40
2017-10-28T01:58:18.035Z,8.40
2017-10-28T02:00:45.518Z,8.40
2017-10-28T02:03:13.014Z,8.50
2017-10-28T02:05:40.483Z,8.40
2017-10-28T02:08:08.733Z,8.50
2017-10-28T02:10:36.223Z,8.50
2017-10-28T02:13:04.470Z,8.50
2017-10-28T02:15:32.771Z,8.50
2017-10-28T02:18:01.047Z,8.50
2017-10-28T02:20:29.300Z,8.50
2017-10-28T02:22:58.283Z,8.50
2017-10-28T02:25:25.878Z,8.50
2017-10-28T02:27:54.156Z,8.50
2017-10-28T02:30:22.414Z,8.50
2017-10-28T02:32:49.909Z,8.50
2017-10-28T02:35:17.448Z,8.50
2017-10-28T02:37:45.534Z,8.50
2017-10-28T02:40:13.026Z,8.50
2017-10-28T02:42:40.509Z,8.50
2017-10-28T02:45:07.989Z,8.50
2017-10-28T02:47:36.247Z,8.50
2017-10-28T02:50:04.491Z,8.50
2017-10-28T02:52:32.119Z,8.50
2017-10-28T02:54:59.668Z,8.60
2017-10-28T02:57:27.912Z,8.50
2017-10-28T02:59:55.397Z,8.50
2017-10-28T03:02:23.668Z,8.50
2017-10-28T03:04:51.144Z,8.50
2017-10-28T03:07:19.412Z,8.40
2017-10-28T03:09:47.692Z,8.40
2017-10-28T03:12:16.859Z,8.40
2017-10-28T03:14:44.335Z,8.40
2017-10-28T03:17:11.822Z,8.40
2017-10-28T03:19:39.370Z,8.30
2017-10-28T03:22:07.615Z,8.30
2017-10-28T03:24:35.107Z,8.30
2017-10-28T03:27:03.351Z,8.30
2017-10-28T03:29:30.827Z,8.30
2017-10-28T03:31:59.092Z,8.30
2017-10-28T03:34:27.338Z,8.20
2017-10-28T03:36:54.879Z,8.20
2017-10-28T03:39:22.401Z,8.20
2017-10-28T03:41:50.657Z,8.10
2017-10-28T03:44:18.148Z,8.10
2017-10-28T03:46:46.407Z,8.10
2017-10-28T03:49:14.740Z,8.10
2017-10-28T03:51:42.216Z,8.10
2017-10-28T03:54:09.698Z,8.20
2017-10-28T03:56:37.182Z,8.20
2017-10-28T03:59:04.676Z,8.10
2017-10-28T04:01:32.172Z,8.10
2017-10-28T04:03:59.654Z,8.10
2017-10-28T04:06:27.903Z,8.10
2017-10-28T04:08:55.476Z,8.00
2017-10-28T04:11:23.752Z,8.10
2017-10-28T04:13:52.012Z,8.00
2017-10-28T04:16:19.503Z,8.00
2017-10-28T04:18:47.039Z,8.00
2017-10-28T04:21:14.519Z,8.00
2017-10-28T04:23:42.015Z,8.00
2017-10-28T04:26:09.487Z,8.00
2017-10-28T04:28:36.963Z,8.00
2017-10-28T04:31:04.531Z,8.00
2017-10-28T04:33:32.011Z,8.10
2017-10-28T04:36:00.251Z,8.10
2017-10-28T04:38:27.835Z,8.10
2017-10-28T04:40:56.075Z,8.10
2017-10-28T04:43:23.555Z,8.10
2017-10-28T04:45:51.854Z,8.10
2017-10-28T04:48:20.290Z,8.10
2017-10-28T04:50:47.788Z,8.10
2017-10-28T04:53:16.304Z,8.10
2017-10-28T04:55:43.786Z,8.10
2017-10-28T04:58:11.270Z,8.00
2017-10-28T05:00:38.758Z,8.00
2017-10-28T05:03:06.248Z,7.90
2017-10-28T05:05:33.728Z,7.90
2017-10-28T05:08:02.188Z,7.90
2017-10-28T05:10:29.690Z,7.90
2017-10-28T05:12:57.255Z,7.80
2017-10-28T05:15:25.536Z,7.80
2017-10-28T05:17:53.815Z,7.80
2017-10-28T05:20:22.060Z,7.80
2017-10-28T05:22:50.653Z,7.80
2017-10-28T05:25:18.127Z,7.70
2017-10-28T05:27:46.411Z,7.70
2017-10-28T05:30:14.659Z,7.80
2017-10-28T05:32:42.135Z,7.70
2017-10-28T05:35:10.374Z,7.80
2017-10-28T05:37:37.872Z,7.80
2017-10-28T05:40:06.395Z,7.80
2017-10-28T05:42:33.875Z,7.80
2017-10-28T05:45:01.386Z,7.80
2017-10-28T05:47:29.652Z,7.80
2017-10-28T05:49:57.894Z,7.80
2017-10-28T05:52:25.484Z,7.80
2017-10-28T05:54:53.736Z,7.80
2017-10-28T05:57:21.214Z,7.80
2017-10-28T05:59:48.711Z,7.80
2017-10-28T06:02:16.240Z,7.80
2017-10-28T06:04:44.508Z,7.80
2017-10-28T06:07:12.075Z,7.80
2017-10-28T06:09:40.328Z,7.80
2017-10-28T06:12:09.326Z,7.80
2017-10-28T06:14:37.639Z,7.80
2017-10-28T06:17:05.114Z,7.80
2017-10-28T06:19:32.643Z,7.80
2017-10-28T06:22:00.900Z,7.80
2017-10-28T06:24:28.375Z,7.80
2017-10-28T06:26:56.640Z,7.80
2017-10-28T06:29:25.643Z,7.80
2017-10-28T06:31:53.887Z,7.80
2017-10-28T06:34:21.387Z,7.80
2017-10-28T06:36:49.655Z,7.90
2017-10-28T06:39:17.931Z,7.90
2017-10-28T06:41:45.498Z,7.80
2017-10-28T06:44:14.017Z,7.90
2017-10-28T06:46:41.549Z,7.80
2017-10-28T06:49:09.036Z,7.90
2017-10-28T06:51:36.529Z,7.90
2017-10-28T06:54:04.083Z,7.90
2017-10-28T06:56:31.561Z,8.00
2017-10-28T06:58:59.050Z,8.00
2017-10-28T07:01:26.526Z,8.00
2017-10-28T07:03:54.006Z,8.00
2017-10-28T07:06:21.500Z,8.00
2017-10-28T07:08:49.783Z,8.10
2017-10-28T07:11:18.036Z,8.10
2017-10-28T07:13:45.528Z,8.10
2017-10-28T07:16:13.778Z,8.10
2017-10-28T07:18:41.356Z,8.10
2017-10-28T07:21:09.660Z,8.20
2017-10-28T07:23:37.188Z,8.20
2017-10-28T07:26:05.433Z,8.30
2017-10-28T07:28:32.915Z,8.30
2017-10-28T07:31:00.392Z,8.30
2017-10-28T07:33:28.636Z,8.30
2017-10-28T07:35:56.280Z,8.30
2017-10-28T07:38:23.755Z,8.30
2017-10-28T07:40:52.427Z,8.40
2017-10-28T07:43:19.919Z,8.40
2017-10-28T07:45:48.195Z,8.50
2017-10-28T07:48:16.451Z,8.60
2017-10-28T07:50:43.939Z,8.50
2017-10-28T07:53:12.192Z,8.60
2017-10-28T07:55:39.767Z,8.60
2017-10-28T07:58:08.023Z,8.70
2017-10-28T08:00:35.625Z,8.70
2017-10-28T08:03:03.106Z,8.70
2017-10-28T08:05:30.612Z,8.70
2017-10-28T08:07:58.183Z,8.70
2017-10-28T08:10:26.454Z,8.80
2017-10-28T08:12:54.730Z,8.80
2017-10-28T08:15:22.976Z,8.80
2017-10-28T08:17:50.476Z,8.90
2017-10-28T08:20:18.740Z,9.00
2017-10-28T08:22:46.305Z,9.00
2017-10-28T08:25:14.548Z,9.00
2017-10-28T08:27:42.042Z,9.00
2017-10-28T08:30:10.313Z,9.00
2017-10-28T08:32:38.711Z,9.00
2017-10-28T08:35:06.960Z,9.00
2017-10-28T08:37:34.532Z,9.00
2017-10-28T08:40:02.809Z,9.00
2017-10-28T08:42:31.071Z,9.00
2017-10-28T08:44:58.555Z,9.00
2017-10-28T08:47:26.813Z,9.10
2017-10-28T08:49:54.319Z,9.10
2017-10-28T08:52:22.660Z,9.20
2017-10-28T08:54:50.905Z,9.70
2017-10-28T08:57:18.394Z,9.60
2017-10-28T08:59:46.647Z,10.10
2017-10-28T09:02:14.231Z,10.10
2017-10-28T09:04:42.490Z,10.10
2017-10-28T09:07:10.059Z,10.10
2017-10-28T09:09:38.316Z,10.00
2017-10-28T09:12:05.828Z,10.00
2017-10-28T09:14:33.357Z,9.80
2017-10-28T09:17:01.600Z,9.90
2017-10-28T09:19:29.204Z,9.90
2017-10-28T09:21:57.467Z,10.10
2017-10-28T09:24:24.956Z,10.00
2017-10-28T09:26:53.903Z,10.30
2017-10-28T09:29:21.378Z,10.20
2017-10-28T09:31:49.627Z,10.30
2017-10-28T09:34:17.115Z,10.20
2017-10-28T09:36:45.368Z,10.20
2017-10-28T09:39:12.952Z,10.20
2017-10-28T09:41:41.240Z,10.20
2017-10-28T09:44:09.504Z,10.10
2017-10-28T09:46:37.781Z,10.10
2017-10-28T09:49:06.043Z,10.10
2017-10-28T09:51:33.611Z,10.10
2017-10-28T09:54:01.255Z,10.10
2017-10-28T09:56:28.752Z,10.20
2017-10-28T09:58:57.015Z,10.30
2017-10-28T10:01:25.258Z,10.40
2017-10-28T10:03:54.448Z,10.30
2017-10-28T10:06:21.949Z,10.30
2017-10-28T10:08:50.191Z,10.60
2017-10-28T10:11:17.704Z,10.60
2017-10-28T10:13:45.198Z,10.80
2017-10-28T10:16:12.678Z,10.90
2017-10-28T10:18:40.294Z,11.00
2017-10-28T10:21:07.799Z,11.20
2017-10-28T10:23:35.274Z,11.20
2017-10-28T10:26:03.532Z,11.00
2017-10-28T10:28:31.018Z,10.90
2017-10-28T10:30:58.507Z,10.90
2017-10-28T10:33:26.047Z,10.80
2017-10-28T10:35:54.469Z,10.70
2017-10-28T10:38:21.951Z,10.60
2017-10-28T10:40:49.439Z,10.40
2017-10-28T10:43:17.704Z,10.40
2017-10-28T10:45:45.979Z,10.30
2017-10-28T10:48:14.263Z,10.30
2017-10-28T10:50:42.839Z,10.20
2017-10-28T10:53:11.083Z,10.20
2017-10-28T10:55:38.570Z,10.10
2017-10-28T10:58:06.051Z,10.20
2017-10-28T11:00:33.525Z,10.20
2017-10-28T11:03:01.046Z,10.20
2017-10-28T11:05:29.332Z,10.40
2017-10-28T11:07:57.599Z,10.40
2017-10-28T11:10:25.105Z,10.40
2017-10-28T11:12:52.591Z,10.30
2017-10-28T11:15:20.072Z,10.20
2017-10-28T11:17:48.360Z,10.30
2017-10-28T11:20:16.626Z,10.30
2017-10-28T11:22:44.880Z,10.30
2017-10-28T11:25:12.362Z,10.30
2017-10-28T11:27:39.888Z,10.40
2017-10-28T11:30:07.376Z,10.30
2017-10-28T11:32:34.875Z,10.40
2017-10-28T11:35:02.368Z,10.30
2017-10-28T11:37:29.857Z,10.30
2017-10-28T11:39:58.136Z,10.30
2017-10-28T11:42:26.412Z,10.40
2017-10-28T11:44:55.567Z,10.50
2017-10-28T11:47:23.169Z,10.50
2017-10-28T11:49:51.451Z,10.60
2017-10-28T11:52:19.799Z,10.70
2017-10-28T11:54:47.378Z,10.70
2017-10-28T11:57:14.862Z,10.80
2017-10-28T11:59:42.399Z,10.80
2017-10-28T12:02:09.883Z,10.70
2017-10-28T12:04:37.418Z,10.70
2017-10-28T12:07:05.699Z,10.60
2017-10-28T12:09:33.963Z,10.50
2017-10-28T12:12:01.436Z,10.50
2017-10-28T12:14:29.683Z,10.50
2017-10-28T12:16:57.178Z,10.50
2017-10-28T12:19:26.340Z,10.60
2017-10-28T12:21:53.822Z,10.50
2017-10-28T12:24:22.074Z,10.50
2017-10-28T12:26:49.660Z,10.50
2017-10-28T12:29:17.914Z,10.60
2017-10-28T12:31:46.910Z,10.50
2017-10-28T12:34:14.388Z,10.50
2017-10-28T12:36:42.732Z,10.40
2017-10-28T12:39:10.220Z,10.40
2017-10-28T12:41:38.983Z,10.40
2017-10-28T12:44:06.474Z,10.40
2017-10-28T12:46:34.737Z,10.40
2017-10-28T12:49:02.383Z,10.50
2017-10-28T12:51:29.857Z,10.40
2017-10-28T12:53:57.423Z,10.50
2017-10-28T12:56:26.587Z,10.50
2017-10-28T12:58:54.093Z,10.50
2017-10-28T13:01:22.345Z,10.50
2017-10-28T13:03:50.587Z,10.50
2017-10-28T13:06:18.077Z,10.50
2017-10-28T13:08:45.583Z,10.50
2017-10-28T13:11:13.067Z,10.50
2017-10-28T13:13:40.534Z,10.50
2017-10-28T13:16:08.033Z,10.40
2017-10-28T13:18:36.306Z,10.50
2017-10-28T13:21:04.559Z,10.70
2017-10-28T13:23:32.049Z,10.60
2017-10-28T13:26:00.305Z,11.10
2017-10-28T13:28:27.866Z,11.00
2017-10-28T13:30:55.356Z,11.20
2017-10-28T13:33:22.832Z,11.30
2017-10-28T13:35:50.322Z,11.40
2017-10-28T13:38:17.906Z,11.20
2017-10-28T13:40:46.157Z,10.80
2017-10-28T13:43:13.642Z,10.80
2017-10-28T13:45:41.960Z,10.60
2017-10-28T13:48:09.458Z,10.50
2017-10-28T13:50:36.943Z,10.40
2017-10-28T13:53:05.196Z,10.10
2017-10-28T13:55:32.776Z,10.10
2017-10-28T13:58:01.019Z,10.10
2017-10-28T14:00:28.512Z,10.10
2017-10-28T14:02:57.676Z,10.10
2017-10-28T14:05:25.212Z,10.10
2017-10-28T14:07:52.731Z,10.10
2017-10-28T14:10:21.003Z,10.20
2017-10-28T14:12:49.243Z,10.10
2017-10-28T14:15:16.738Z,10.10
2017-10-28T14:17:44.979Z,10.00
2017-10-28T14:20:12.463Z,10.00
2017-10-28T14:22:39.946Z,10.00
2017-10-28T14:25:07.421Z,9.90
2017-10-28T14:27:34.898Z,9.80
2017-10-28T14:30:02.402Z,9.80
2017-10-28T14:32:30.647Z,9.90
2017-10-28T14:34:58.172Z,9.90
2017-10-28T14:37:25.698Z,9.90
2017-10-28T14:39:53.978Z,10.00
2017-10-28T14:42:22.230Z,10.00
2017-10-28T14:44:49.751Z,10.00
2017-10-28T14:47:17.268Z,10.00
2017-10-28T14:49:45.565Z,10.00
2017-10-28T14:52:13.072Z,9.90
2017-10-28T14:54:40.564Z,9.90
2017-10-28T14:57:08.812Z,9.80
2017-10-28T14:59:36.451Z,9.80
2017-10-28T15:02:03.927Z,9.80
2017-10-28T15:04:31.408Z,9.80
2017-10-28T15:06:58.902Z,9.70
2017-10-28T15:09:26.379Z,9.70
2017-10-28T15:11:53.847Z,9.70
2017-10-28T15:14:21.339Z,9.60
2017-10-28T15:16:48.812Z,9.60
2017-10-28T15:19:17.429Z,9.50
2017-10-28T15:21:44.927Z,9.50
2017-10-28T15:24:12.419Z,9.50
2017-10-28T15:26:40.651Z,9.50
2017-10-28T15:29:08.136Z,9.50
2017-10-28T15:31:36.378Z,9.50
2017-10-28T15:34:03.851Z,9.50
2017-10-28T15:36:31.341Z,9.40
2017-10-28T15:38:59.583Z,9.40
2017-10-28T15:41:27.056Z,9.40
2017-10-28T15:43:54.541Z,9.40
2017-10-28T15:46:22.780Z,9.40
2017-10-28T15:48:50.358Z,9.40
2017-10-28T15:51:18.644Z,9.40
2017-10-28T15:53:46.920Z,9.30
2017-10-28T15:56:15.164Z,9.30
2017-10-28T15:58:42.671Z,9.30
2017-10-28T16:01:10.215Z,9.30
2017-10-28T16:03:38.452Z,9.30
2017-10-28T16:06:06.047Z,9.30
2017-10-28T16:08:33.519Z,9.30
2017-10-28T16:11:01.775Z,9.30
2017-10-28T16:13:29.344Z,9.30
2017-10-28T16:15:57.579Z,9.30
2017-10-28T16:18:25.056Z,9.30
2017-10-28T16:20:52.645Z,9.30
2017-10-28T16:23:20.892Z,9.20
2017-10-28T16:25:48.370Z,9.20
2017-10-28T16:28:16.628Z,9.30
2017-10-28T16:30:45.624Z,9.20
2017-10-28T16:33:13.102Z,9.20
2017-10-28T16:35:41.356Z,9.20
2017-10-28T16:38:08.836Z,9.20
2017-10-28T16:40:37.071Z,9.20
2017-10-28T16:43:04.678Z,9.20
2017-10-28T16:45:32.230Z,9.20
2017-10-28T16:47:59.739Z,9.20
2017-10-28T16:50:27.564Z,9.20
2017-10-28T16:52:55.831Z,9.10
2017-10-28T16:55:24.076Z,9.10
2017-10-28T16:57:51.560Z,9.10
2017-10-28T17:00:19.035Z,9.10
2017-10-28T17:02:47.282Z,9.00
2017-10-28T17:05:15.530Z,9.00
2017-10-28T17:07:43.032Z,9.00
2017-10-28T17:10:11.267Z,9.00
2017-10-28T17:12:38.755Z,9.00
2017-10-28T17:15:06.235Z,9.00
2017-10-28T17:17:34.503Z,8.90
2017-10-28T17:20:02.826Z,8.90
2017-10-28T17:22:30.582Z,8.90
2017-10-28T17:24:58.102Z,8.90
2017-10-28T17:27:26.380Z,8.80
2017-10-28T17:29:54.626Z,8.80
2017-10-28T17:32:22.127Z,8.80
2017-10-28T17:34:50.381Z,8.80
2017-10-28T17:37:17.872Z,8.80
2017-10-28T17:39:45.381Z,8.80
2017-10-28T17:42:13.000Z,8.80
2017-10-28T17:44:40.485Z,8.80
2017-10-28T17:47:07.972Z,8.70
2017-10-28T17:49:35.566Z,8.70
2017-10-28T17:52:03.111Z,8.70
2017-10-28T17:54:31.354Z,8.70
2017-10-28T17:56:58.840Z,8.70
2017-10-28T17:59:27.112Z,8.70
2017-10-28T18:01:55.365Z,8.70
2017-10-28T18:04:22.868Z,8.60
2017-10-28T18:06:50.501Z,8.60
2017-10-28T18:09:17.988Z,8.60
2017-10-28T18:11:45.494Z,8.60
2017-10-28T18:14:12.972Z,8.60
2017-10-28T18:16:41.059Z,8.60
2017-10-28T18:19:08.551Z,8.60
2017-10-28T18:21:36.027Z,8.60
2017-10-28T18:24:03.547Z,8.60
2017-10-28T18:26:31.308Z,8.60
2017-10-28T18:28:59.552Z,8.60
2017-10-28T18:31:27.031Z,8.60
2017-10-28T18:33:55.311Z,8.60
2017-10-28T18:36:23.556Z,8.60
2017-10-28T18:38:51.147Z,8.60
2017-10-28T18:41:19.426Z,8.60
2017-10-28T18:43:47.672Z,8.60
2017-10-28T18:46:15.164Z,8.60
2017-10-28T18:48:43.434Z,8.60
2017-10-28T18:51:11.764Z,8.60
2017-10-28T18:53:39.238Z,8.60
2017-10-28T18:56:06.976Z,8.60
2017-10-28T18:58:34.561Z,8.60
2017-10-28T19:01:02.030Z,8.70
2017-10-28T19:03:29.512Z,8.60
2017-10-28T19:05:57.788Z,8.60
2017-10-28T19:08:26.044Z,8.60
2017-10-28T19:10:53.635Z,8.60
2017-10-28T19:13:21.879Z,8.70
2017-10-28T19:15:49.360Z,8.60
2017-10-28T19:18:17.639Z,8.70
2017-10-28T19:20:45.923Z,8.60
2017-10-28T19:23:14.175Z,8.70
2017-10-28T19:25:41.655Z,8.70
2017-10-28T19:28:09.891Z,8.70
2017-10-28T19:30:37.373Z,8.70
2017-10-28T19:33:04.944Z,8.70
2017-10-28T19:35:32.643Z,8.70
2017-10-28T19:38:00.120Z,8.70
2017-10-28T19:40:27.607Z,8.70
2017-10-28T19:42:55.080Z,8.70
2017-10-28T19:45:24.135Z,8.70
2017-10-28T19:47:51.634Z,8.70
2017-10-28T19:50:19.902Z,8.80
2017-10-28T19:52:47.628Z,8.80
2017-10-28T19:55:15.144Z,8.80
2017-10-28T19:57:43.407Z,8.90
2017-10-28T20:00:11.660Z,8.80
2017-10-28T20:02:39.189Z,8.80
2017-10-28T20:05:06.698Z,8.80
2017-10-28T20:07:34.180Z,8.80
2017-10-28T20:10:01.720Z,8.70
2017-10-28T20:12:30.012Z,8.50
2017-10-28T20:14:58.277Z,8.40
2017-10-28T20:17:26.559Z,8.40
2017-10-28T20:19:54.804Z,8.30
2017-10-28T20:22:22.289Z,8.20
2017-10-28T20:24:50.535Z,8.10
2017-10-28T20:27:18.004Z,8.10
2017-10-28T20:29:46.349Z,8.10
2017-10-28T20:32:13.831Z,8.00
2017-10-28T20:34:41.354Z,8.00
2017-10-28T20:37:08.835Z,8.00
2017-10-28T20:39:36.351Z,8.00
2017-10-28T20:42:04.315Z,8.00
2017-10-28T20:44:32.588Z,7.90
2017-10-28T20:47:00.865Z,7.80
2017-10-28T20:49:29.106Z,7.70
2017-10-28T20:51:56.601Z,7.70
2017-10-28T20:54:24.881Z,7.30
2017-10-28T20:56:53.208Z,7.20
2017-10-28T20:59:20.705Z,7.20
2017-10-28T21:01:48.952Z,7.10
2017-10-28T21:04:16.430Z,7.10
2017-10-28T21:06:43.913Z,7.00
2017-10-28T21:09:11.859Z,7.00
2017-10-28T21:11:40.112Z,6.90
2017-10-28T21:14:07.600Z,6.90
2017-10-28T21:16:35.363Z,6.90
2017-10-28T21:19:03.639Z,6.90
2017-10-28T21:21:31.883Z,6.90
2017-10-28T21:23:59.385Z,6.80
2017-10-28T21:26:27.623Z,6.90
2017-10-28T21:28:55.107Z,6.90
2017-10-28T21:31:23.359Z,6.80
2017-10-28T21:33:50.840Z,6.80
2017-10-28T21:36:19.121Z,6.80
2017-10-28T21:38:47.374Z,6.90
2017-10-28T21:41:16.357Z,6.90
2017-10-28T21:43:43.835Z,6.90
2017-10-28T21:46:12.079Z,6.90
2017-10-28T21:48:39.556Z,6.90
2017-10-28T21:51:07.039Z,6.90
2017-10-28T21:53:36.214Z,7.00
2017-10-28T21:56:03.692Z,7.00
2017-10-28T21:58:31.162Z,7.00
2017-10-28T22:00:59.418Z,7.10
2017-10-28T22:03:27.650Z,7.20
2017-10-28T22:05:55.126Z,7.10
2017-10-28T22:08:22.612Z,7.30
2017-10-28T22:10:50.084Z,7.30
2017-10-28T22:13:18.360Z,7.30
2017-10-28T22:15:46.611Z,7.30
2017-10-28T22:18:14.190Z,7.30
2017-10-28T22:20:42.467Z,7.40
2017-10-28T22:23:10.751Z,7.40
2017-10-28T22:25:38.988Z,7.40
2017-10-28T22:28:07.412Z,7.30
2017-10-28T22:30:35.667Z,7.30
2017-10-28T22:33:03.247Z,7.30
2017-10-28T22:35:31.488Z,7.20
2017-10-28T22:37:58.975Z,7.20
2017-10-28T22:40:27.220Z,7.10
2017-10-28T22:42:54.818Z,7.10
2017-10-28T22:45:23.106Z,7.00
2017-10-28T22:47:51.362Z,7.00
2017-10-28T22:50:19.611Z,7.00
2017-10-28T22:52:47.209Z,6.90
2017-10-28T22:55:15.482Z,6.80
2017-10-28T22:57:43.760Z,6.80
2017-10-28T23:00:12.021Z,6.80
2017-10-28T23:02:39.595Z,6.80
2017-10-28T23:05:08.796Z,6.80
2017-10-28T23:07:37.042Z,6.80
2017-10-28T23:10:04.628Z,6.80
2017-10-28T23:12:32.908Z,6.80
2017-10-28T23:15:01.168Z,6.80
2017-10-28T23:17:29.416Z,6.80
2017-10-28T23:19:56.914Z,6.80
2017-10-28T23:22:25.159Z,6.70
2017-10-28T23:24:52.636Z,6.70
2017-10-28T23:27:20.116Z,6.80
2017-10-28T23:29:48.368Z,6.70
2017-10-28T23:32:16.620Z,6.80
2017-10-28T23:34:44.119Z,6.80
2017-10-28T23:37:12.371Z,6.80
2017-10-28T23:39:39.949Z,6.80
2017-10-28T23:42:07.987Z,6.80
2017-10-28T23:44:35.467Z,6.80
2017-10-28T23:47:02.939Z,6.70
2017-10-28T23:49:31.183Z,6.70
2017-10-28T23:51:58.667Z,6.70
2017-10-28T23:54:26.235Z,6.70
2017-10-28T23:56:54.479Z,6.70
2017-10-28T23:59:21.967Z,6.70
